Terminal Aerodrome Forecast
Issued by NWS

Current Version | Previous Version | Graphics & Text | Print | Product List | Glossary On
Versions: 1 2 3 4 5 6 7 8 9 10 11 12 13 14 15 16 17 18 19 20 21 22 23 24
694
FTUS41 KRLX 181120
TAFCKB
TAF
KCKB 181120Z 1812/1912 29007KT 6SM BR BKN025
     FM181600 27004KT P6SM BKN035
     FM181700 22005KT P6SM SCT035
     FM181900 20004KT P6SM SCT200
     FM182300 10003KT P6SM FEW250
     FM190800 16004KT P6SM BKN120=

USA.gov is the U.S. government's official web portal to all federal, state and local government web resources and services.